createdAt,value
2019-02-23T00:02:07.797Z,3.80
2019-02-23T00:04:36.255Z,3.70
2019-02-23T00:07:05.419Z,3.60
2019-02-23T00:09:33.889Z,3.50
2019-02-23T00:12:04.567Z,3.60
2019-02-23T00:14:32.549Z,3.70
2019-02-23T00:17:01.077Z,3.70
2019-02-23T00:19:29.558Z,3.60
2019-02-23T00:21:58.025Z,3.50
2019-02-23T00:24:26.549Z,3.40
2019-02-23T00:26:55.048Z,3.30
2019-02-23T00:29:23.629Z,3.30
2019-02-23T00:31:52.097Z,3.20
2019-02-23T00:34:20.672Z,3.30
2019-02-23T00:36:49.473Z,3.50
2019-02-23T00:39:17.944Z,3.70
2019-02-23T00:41:46.486Z,3.60
2019-02-23T00:44:15.040Z,3.60
2019-02-23T00:46:43.480Z,3.60
2019-02-23T00:49:12.103Z,3.60
2019-02-23T00:51:40.621Z,3.60
2019-02-23T00:54:09.109Z,3.70
2019-02-23T00:56:37.834Z,3.60
2019-02-23T00:59:06.309Z,3.70
2019-02-23T01:01:34.876Z,3.60
2019-02-23T01:04:03.327Z,3.40
2019-02-23T01:06:31.779Z,3.40
2019-02-23T01:09:00.217Z,3.40
2019-02-23T01:11:28.877Z,3.50
2019-02-23T01:13:57.335Z,3.50
2019-02-23T01:16:26.018Z,3.50
2019-02-23T01:18:54.529Z,3.40
2019-02-23T01:21:22.988Z,3.40
2019-02-23T01:23:51.497Z,3.30
2019-02-23T01:26:20.006Z,3.20
2019-02-23T01:28:48.514Z,3.20
2019-02-23T01:31:17.127Z,3.10
2019-02-23T01:33:45.668Z,3.00
2019-02-23T01:36:14.279Z,3.00
2019-02-23T01:38:42.800Z,2.90
2019-02-23T01:41:11.277Z,2.80
2019-02-23T01:43:39.723Z,2.90
2019-02-23T01:46:08.648Z,3.00
2019-02-23T01:48:37.125Z,3.20
2019-02-23T01:51:05.640Z,3.40
2019-02-23T01:53:34.169Z,3.50
2019-02-23T01:56:02.680Z,3.60
2019-02-23T01:58:31.186Z,3.50
2019-02-23T02:00:59.716Z,3.50
2019-02-23T02:03:28.256Z,3.50
2019-02-23T02:05:57.065Z,3.50
2019-02-23T02:08:25.714Z,3.40
2019-02-23T02:10:54.248Z,3.40
2019-02-23T02:13:22.718Z,3.20
2019-02-23T02:15:51.525Z,3.20
2019-02-23T02:18:20.008Z,3.10
2019-02-23T02:20:48.474Z,3.00
2019-02-23T02:23:16.937Z,3.10
2019-02-23T02:25:45.388Z,3.10
2019-02-23T02:28:13.860Z,3.10
2019-02-23T02:30:42.298Z,3.10
2019-02-23T02:33:10.744Z,2.90
2019-02-23T02:35:39.290Z,2.80
2019-02-23T02:38:07.760Z,2.60
2019-02-23T02:40:36.235Z,2.50
2019-02-23T02:43:04.760Z,2.50
2019-02-23T02:45:33.237Z,2.60
2019-02-23T02:48:01.748Z,2.70
2019-02-23T02:50:30.217Z,2.90
2019-02-23T02:52:58.663Z,2.80
2019-02-23T02:55:27.129Z,2.90
2019-02-23T02:57:55.573Z,2.80
2019-02-23T03:00:24.048Z,2.70
2019-02-23T03:02:52.481Z,2.60
2019-02-23T03:05:20.949Z,2.50
2019-02-23T03:07:49.467Z,2.40
2019-02-23T03:10:17.919Z,2.60
2019-02-23T03:12:46.365Z,2.80
2019-02-23T03:15:14.948Z,2.90
2019-02-23T03:17:43.470Z,2.90
2019-02-23T03:20:11.938Z,2.70
2019-02-23T03:22:40.389Z,2.50
2019-02-23T03:25:08.975Z,2.50
2019-02-23T03:27:37.513Z,2.50
2019-02-23T03:30:08.902Z,2.30
2019-02-23T03:32:37.458Z,2.20
2019-02-23T03:35:06.211Z,2.20
2019-02-23T03:37:34.681Z,2.20
2019-02-23T03:40:03.298Z,2.40
2019-02-23T03:42:31.760Z,2.50
2019-02-23T03:45:00.400Z,2.60
2019-02-23T03:47:30.517Z,2.50
2019-02-23T03:49:59.057Z,2.50
2019-02-23T03:52:27.517Z,2.40
2019-02-23T03:54:55.974Z,2.40
2019-02-23T03:57:24.428Z,2.40
2019-02-23T03:59:52.946Z,2.30
2019-02-23T04:02:21.424Z,2.30
2019-02-23T04:04:49.859Z,2.30
2019-02-23T04:07:18.314Z,2.30
2019-02-23T04:09:46.780Z,2.20
2019-02-23T04:12:15.216Z,2.20
2019-02-23T04:14:43.775Z,2.20
2019-02-23T04:17:12.232Z,2.20
2019-02-23T04:19:40.712Z,2.30
2019-02-23T04:22:09.410Z,2.10
2019-02-23T04:24:37.878Z,2.00
2019-02-23T04:27:06.326Z,2.00
2019-02-23T04:29:34.861Z,1.90
2019-02-23T04:32:03.311Z,1.90
2019-02-23T04:34:31.768Z,1.90
2019-02-23T04:37:00.209Z,1.90
2019-02-23T04:39:28.676Z,2.00
2019-02-23T04:41:57.124Z,2.10
2019-02-23T04:44:25.600Z,1.90
2019-02-23T04:46:54.032Z,1.70
2019-02-23T04:49:25.639Z,1.60
2019-02-23T04:51:52.673Z,1.80
2019-02-23T04:54:21.127Z,1.80
2019-02-23T04:56:49.592Z,1.60
2019-02-23T04:59:18.032Z,1.60
2019-02-23T05:01:46.508Z,1.50
2019-02-23T05:04:14.954Z,1.50
2019-02-23T05:06:43.416Z,1.60
2019-02-23T05:09:12.028Z,1.60
2019-02-23T05:11:40.500Z,1.70
2019-02-23T05:14:08.941Z,1.50
2019-02-23T05:16:37.408Z,1.40
2019-02-23T05:19:05.843Z,1.40
2019-02-23T05:21:34.623Z,1.40
2019-02-23T05:24:03.059Z,1.40
2019-02-23T05:26:31.644Z,1.50
2019-02-23T05:29:00.080Z,1.50
2019-02-23T05:31:29.427Z,1.90
2019-02-23T05:33:57.866Z,2.00
2019-02-23T05:36:26.329Z,2.10
2019-02-23T05:38:54.889Z,1.90
2019-02-23T05:41:23.642Z,1.90
2019-02-23T05:43:52.088Z,2.00
2019-02-23T05:46:20.533Z,2.00
2019-02-23T05:48:48.997Z,2.00
2019-02-23T05:51:17.910Z,2.20
2019-02-23T05:53:46.372Z,2.20
2019-02-23T05:56:16.351Z,2.30
2019-02-23T05:58:45.162Z,2.40
2019-02-23T06:01:13.604Z,2.40
2019-02-23T06:03:42.059Z,2.40
2019-02-23T06:06:10.505Z,2.40
2019-02-23T06:08:38.961Z,2.40
2019-02-23T06:11:07.413Z,2.40
2019-02-23T06:13:35.892Z,2.30
2019-02-23T06:16:04.396Z,2.40
2019-02-23T06:18:32.886Z,2.30
2019-02-23T06:21:01.340Z,2.20
2019-02-23T06:23:29.892Z,2.20
2019-02-23T06:25:58.389Z,2.20
2019-02-23T06:28:26.858Z,2.30
2019-02-23T06:30:55.301Z,2.20
2019-02-23T06:33:23.765Z,2.20
2019-02-23T06:35:52.214Z,2.20
2019-02-23T06:38:20.701Z,2.20
2019-02-23T06:40:49.145Z,2.00
2019-02-23T06:43:17.684Z,2.20
2019-02-23T06:45:46.132Z,2.10
2019-02-23T06:48:14.575Z,2.10
2019-02-23T06:50:43.036Z,2.10
2019-02-23T06:53:11.481Z,2.10
2019-02-23T06:55:39.968Z,2.20
2019-02-23T06:58:08.399Z,2.20
2019-02-23T07:00:36.872Z,2.30
2019-02-23T07:03:05.380Z,2.20
2019-02-23T07:05:33.920Z,2.20
2019-02-23T07:08:02.437Z,2.30
2019-02-23T07:10:30.902Z,2.20
2019-02-23T07:12:59.399Z,2.20
2019-02-23T07:15:27.859Z,2.20
2019-02-23T07:17:56.312Z,2.20
2019-02-23T07:20:24.908Z,2.20
2019-02-23T07:22:53.349Z,2.20
2019-02-23T07:25:21.812Z,2.30
2019-02-23T07:27:50.256Z,2.30
2019-02-23T07:30:19.088Z,2.40
2019-02-23T07:32:47.552Z,2.50
2019-02-23T07:35:16.025Z,2.50
2019-02-23T07:37:44.473Z,2.70
2019-02-23T07:40:14.787Z,2.70
2019-02-23T07:42:43.220Z,2.70
2019-02-23T07:45:11.825Z,2.80
2019-02-23T07:47:40.286Z,2.90
2019-02-23T07:50:11.316Z,2.90
2019-02-23T07:52:40.023Z,3.00
2019-02-23T07:55:08.630Z,3.00
2019-02-23T07:57:37.072Z,3.20
2019-02-23T08:00:09.018Z,3.20
2019-02-23T08:02:37.452Z,3.30
2019-02-23T08:05:08.532Z,3.40
2019-02-23T08:07:36.990Z,3.40
2019-02-23T08:10:08.852Z,3.40
2019-02-23T08:12:37.371Z,3.50
2019-02-23T08:15:10.780Z,3.60
2019-02-23T08:17:39.240Z,3.60
2019-02-23T08:20:12.202Z,3.60
2019-02-23T08:22:40.658Z,3.60
2019-02-23T08:25:11.596Z,3.60
2019-02-23T08:27:40.057Z,3.60
2019-02-23T08:30:14.060Z,3.70
2019-02-23T08:32:42.512Z,3.80
2019-02-23T08:35:10.944Z,3.80
2019-02-23T08:37:39.413Z,3.90
2019-02-23T08:40:13.500Z,4.00
2019-02-23T08:42:41.971Z,4.20
2019-02-23T08:45:10.651Z,4.20
2019-02-23T08:47:39.184Z,4.30
2019-02-23T08:50:10.696Z,4.40
2019-02-23T08:52:48.469Z,4.50
2019-02-23T08:55:10.352Z,4.50
2019-02-23T08:57:38.808Z,4.70
2019-02-23T09:00:10.452Z,4.60
2019-02-23T09:02:38.884Z,4.70
2019-02-23T09:05:08.880Z,4.80
2019-02-23T09:07:37.312Z,5.00
2019-02-23T09:10:08.504Z,4.90
2019-02-23T09:12:36.955Z,5.00
2019-02-23T09:15:06.752Z,5.00
2019-02-23T09:17:35.201Z,5.00
2019-02-23T09:20:04.409Z,5.10
2019-02-23T09:22:32.922Z,5.20
2019-02-23T09:25:01.484Z,5.20
2019-02-23T09:27:30.208Z,5.30
2019-02-23T09:29:58.663Z,5.40
2019-02-23T09:32:27.476Z,5.40
2019-02-23T09:34:55.958Z,5.40
2019-02-23T09:37:24.465Z,5.50
2019-02-23T09:39:52.905Z,5.50
2019-02-23T09:42:21.439Z,5.60
2019-02-23T09:44:51.520Z,5.60
2019-02-23T09:47:20.004Z,5.70
2019-02-23T09:49:48.500Z,5.80
2019-02-23T09:52:16.996Z,5.90
2019-02-23T09:54:45.427Z,6.00
2019-02-23T09:57:14.010Z,6.10
2019-02-23T09:59:42.450Z,6.20
2019-02-23T10:02:10.988Z,6.40
2019-02-23T10:04:39.424Z,6.50
2019-02-23T10:07:07.885Z,6.60
2019-02-23T10:09:36.323Z,6.70
2019-02-23T10:12:04.920Z,6.80
2019-02-23T10:14:33.402Z,6.90
2019-02-23T10:17:01.873Z,7.10
2019-02-23T10:19:30.308Z,7.20
2019-02-23T10:21:58.757Z,7.20
2019-02-23T10:24:27.223Z,7.30
2019-02-23T10:26:55.723Z,7.20
2019-02-23T10:29:24.192Z,7.30
2019-02-23T10:31:52.628Z,7.60
2019-02-23T10:34:21.080Z,7.60
2019-02-23T10:36:49.512Z,7.70
2019-02-23T10:39:18.040Z,7.90
2019-02-23T10:41:46.543Z,8.00
2019-02-23T10:44:14.992Z,7.90
2019-02-23T10:46:43.437Z,7.90
2019-02-23T10:49:11.965Z,8.20
2019-02-23T10:51:40.399Z,8.30
2019-02-23T10:54:08.942Z,8.40
2019-02-23T10:56:37.385Z,8.50
2019-02-23T10:59:05.836Z,8.60
2019-02-23T11:01:34.691Z,8.60
2019-02-23T11:04:03.173Z,8.50
2019-02-23T11:06:31.614Z,8.60
2019-02-23T11:09:00.054Z,8.80
2019-02-23T11:11:28.640Z,9.00
2019-02-23T11:13:57.148Z,9.10
2019-02-23T11:16:25.681Z,9.10
2019-02-23T11:18:54.177Z,9.10
2019-02-23T11:21:22.709Z,9.20
2019-02-23T11:23:51.147Z,9.00
2019-02-23T11:26:19.676Z,9.10
2019-02-23T11:28:48.184Z,9.20
2019-02-23T11:31:16.640Z,9.40
2019-02-23T11:33:45.169Z,9.40
2019-02-23T11:36:13.767Z,9.60
2019-02-23T11:38:42.204Z,9.70
2019-02-23T11:41:10.833Z,9.70
2019-02-23T11:43:39.282Z,9.60
2019-02-23T11:46:07.858Z,9.80
2019-02-23T11:48:36.291Z,10.40
2019-02-23T11:51:04.876Z,10.40
2019-02-23T11:53:33.335Z,10.00
2019-02-23T11:56:01.928Z,9.90
2019-02-23T11:58:30.420Z,9.90
2019-02-23T12:00:58.951Z,9.90
2019-02-23T12:03:27.443Z,9.90
2019-02-23T12:05:56.496Z,10.10
2019-02-23T12:08:24.961Z,10.30
2019-02-23T12:10:53.409Z,10.10
2019-02-23T12:13:21.980Z,10.30
2019-02-23T12:15:50.529Z,10.40
2019-02-23T12:18:19.080Z,10.70
2019-02-23T12:20:47.524Z,10.70
2019-02-23T12:23:15.999Z,11.00
2019-02-23T12:25:46.549Z,10.90
2019-02-23T12:28:14.980Z,10.90
2019-02-23T12:30:43.764Z,11.00
2019-02-23T12:33:12.281Z,11.20
2019-02-23T12:35:40.748Z,11.40
2019-02-23T12:38:09.437Z,11.50
2019-02-23T12:40:37.906Z,11.50
2019-02-23T12:43:06.417Z,11.80
2019-02-23T12:45:34.882Z,12.20
2019-02-23T12:48:03.543Z,12.00
2019-02-23T12:50:33.473Z,12.20
2019-02-23T12:53:02.531Z,12.30
2019-02-23T12:55:30.988Z,12.30
2019-02-23T12:57:59.705Z,12.10
2019-02-23T13:00:28.169Z,11.90
2019-02-23T13:02:56.746Z,11.90
2019-02-23T13:05:25.376Z,12.30
2019-02-23T13:07:53.825Z,12.40
2019-02-23T13:10:22.360Z,12.40
2019-02-23T13:12:59.540Z,12.70
2019-02-23T13:15:31.152Z,12.70
2019-02-23T13:18:20.960Z,12.30
2019-02-23T13:20:55.392Z,12.40
2019-02-23T13:23:49.996Z,12.80
2019-02-23T13:26:30.492Z,13.20
2019-02-23T13:29:30.099Z,12.70
2019-02-23T13:32:30.274Z,12.70
2019-02-23T13:35:21.452Z,12.60
2019-02-23T13:38:04.995Z,12.40
2019-02-23T13:40:45.336Z,12.60
2019-02-23T13:43:22.576Z,12.80
2019-02-23T13:46:10.752Z,12.60
2019-02-23T13:49:03.740Z,12.90
2019-02-23T13:51:58.275Z,13.00
2019-02-23T13:54:41.487Z,13.10
2019-02-23T13:57:28.031Z,12.60
2019-02-23T14:00:20.864Z,12.70
2019-02-23T14:03:25.605Z,13.00
2019-02-23T14:06:21.195Z,13.10
2019-02-23T14:09:08.325Z,13.00
2019-02-23T14:12:11.705Z,13.40
2019-02-23T14:14:58.427Z,13.00
2019-02-23T14:17:38.673Z,12.40
2019-02-23T14:20:10.272Z,12.80
2019-02-23T14:22:41.814Z,13.00
2019-02-23T14:25:40.691Z,13.00
2019-02-23T14:28:34.843Z,13.10
2019-02-23T14:31:12.855Z,13.00
2019-02-23T14:33:53.169Z,12.80
2019-02-23T14:36:30.658Z,12.90
2019-02-23T14:39:24.954Z,12.70
2019-02-23T14:42:08.731Z,12.90
2019-02-23T14:44:40.398Z,12.80
2019-02-23T14:47:17.496Z,12.90
2019-02-23T14:49:51.827Z,12.80
2019-02-23T14:52:55.191Z,12.60
2019-02-23T14:55:32.969Z,12.50
2019-02-23T14:58:13.360Z,12.50
2019-02-23T15:00:44.942Z,12.60
2019-02-23T15:03:19.137Z,12.80
2019-02-23T15:05:56.357Z,12.70
2019-02-23T15:08:31.869Z,12.70
2019-02-23T15:11:19.884Z,12.70
2019-02-23T15:13:51.416Z,12.40
2019-02-23T15:16:56.511Z,12.40
2019-02-23T15:19:46.254Z,12.40
2019-02-23T15:22:26.712Z,12.30
2019-02-23T15:25:12.566Z,12.40
2019-02-23T15:27:43.006Z,12.50
2019-02-23T15:30:35.966Z,12.40
2019-02-23T15:33:16.290Z,12.20
2019-02-23T15:35:56.477Z,12.00
2019-02-23T15:38:44.693Z,11.70
2019-02-23T15:41:21.848Z,11.20
2019-02-23T15:44:11.714Z,10.90
2019-02-23T15:47:01.791Z,10.70
2019-02-23T15:49:34.101Z,10.60
2019-02-23T15:52:03.969Z,10.40
2019-02-23T15:54:32.550Z,10.30
2019-02-23T15:57:01.066Z,10.20
2019-02-23T15:59:29.573Z,10.20
2019-02-23T16:01:58.130Z,10.10
2019-02-23T16:04:26.713Z,10.00
2019-02-23T16:06:55.313Z,9.90
2019-02-23T16:09:23.827Z,9.90
2019-02-23T16:11:52.366Z,9.80
2019-02-23T16:14:20.885Z,9.70
2019-02-23T16:16:49.478Z,9.70
2019-02-23T16:19:17.994Z,9.60
2019-02-23T16:21:46.449Z,9.60
2019-02-23T16:24:14.889Z,9.50
2019-02-23T16:26:43.348Z,9.40
2019-02-23T16:29:11.858Z,9.40
2019-02-23T16:31:40.292Z,9.40
2019-02-23T16:34:08.753Z,9.30
2019-02-23T16:36:37.205Z,9.20
2019-02-23T16:39:08.942Z,9.10
2019-02-23T16:41:37.536Z,9.00
2019-02-23T16:44:06.057Z,8.90
2019-02-23T16:46:34.510Z,8.90
2019-02-23T16:49:03.048Z,8.80
2019-02-23T16:51:31.672Z,8.70
2019-02-23T16:54:00.130Z,8.60
2019-02-23T16:56:28.573Z,8.60
2019-02-23T16:58:57.119Z,8.50
2019-02-23T17:01:25.616Z,8.40
2019-02-23T17:03:54.129Z,8.30
2019-02-23T17:06:22.918Z,8.30
2019-02-23T17:08:51.412Z,8.30
2019-02-23T17:11:20.039Z,8.20
2019-02-23T17:13:48.544Z,8.20
2019-02-23T17:16:17.084Z,8.10
2019-02-23T17:18:45.516Z,8.00
2019-02-23T17:21:14.048Z,7.90
2019-02-23T17:23:42.501Z,7.90
2019-02-23T17:26:12.288Z,7.80
2019-02-23T17:28:40.792Z,7.70
2019-02-23T17:31:09.253Z,7.60
2019-02-23T17:33:37.714Z,7.50
2019-02-23T17:36:06.186Z,7.50
2019-02-23T17:38:34.630Z,7.50
2019-02-23T17:41:03.061Z,7.40
2019-02-23T17:43:31.532Z,7.40
2019-02-23T17:46:00.008Z,7.40
2019-02-23T17:48:28.537Z,7.40
2019-02-23T17:50:57.374Z,7.40
2019-02-23T17:53:25.906Z,7.30
2019-02-23T17:55:54.340Z,7.20
2019-02-23T17:58:22.806Z,7.10
2019-02-23T18:00:51.244Z,7.10
2019-02-23T18:03:19.793Z,7.00
2019-02-23T18:05:48.247Z,7.00
2019-02-23T18:08:17.139Z,6.90
2019-02-23T18:10:45.646Z,6.80
2019-02-23T18:13:14.103Z,6.70
2019-02-23T18:15:42.540Z,6.70
2019-02-23T18:18:11.002Z,6.60
2019-02-23T18:20:39.458Z,6.60
2019-02-23T18:23:07.979Z,6.50
2019-02-23T18:25:36.488Z,6.40
2019-02-23T18:28:04.949Z,6.40
2019-02-23T18:30:33.388Z,6.40
2019-02-23T18:33:01.850Z,6.30
2019-02-23T18:35:30.593Z,6.20
2019-02-23T18:37:59.272Z,6.20
2019-02-23T18:40:27.889Z,6.20
2019-02-23T18:42:56.406Z,6.30
2019-02-23T18:45:24.963Z,6.30
2019-02-23T18:47:53.700Z,6.30
2019-02-23T18:50:22.164Z,6.20
2019-02-23T18:52:50.604Z,6.20
2019-02-23T18:55:19.203Z,6.10
2019-02-23T18:57:48.186Z,6.00
2019-02-23T19:00:24.147Z,6.10
2019-02-23T19:02:47.083Z,6.00
2019-02-23T19:05:15.545Z,6.00
2019-02-23T19:07:44.065Z,6.00
2019-02-23T19:10:14.041Z,6.00
2019-02-23T19:12:42.485Z,6.00
2019-02-23T19:15:12.938Z,5.90
2019-02-23T19:17:41.433Z,6.00
2019-02-23T19:20:14.492Z,6.10
2019-02-23T19:22:43.012Z,6.10
2019-02-23T19:25:12.319Z,6.10
2019-02-23T19:27:40.856Z,6.00
2019-02-23T19:30:14.166Z,5.90
2019-02-23T19:32:42.617Z,5.80
2019-02-23T19:35:11.125Z,5.80
2019-02-23T19:37:39.583Z,5.80
2019-02-23T19:40:09.464Z,5.80
2019-02-23T19:42:37.935Z,5.90
2019-02-23T19:45:11.380Z,5.80
2019-02-23T19:47:41.821Z,5.70
2019-02-23T19:50:13.592Z,5.70
2019-02-23T19:52:42.054Z,5.60
2019-02-23T19:55:13.629Z,5.50
2019-02-23T19:57:42.171Z,5.50
2019-02-23T20:00:10.877Z,5.50
2019-02-23T20:02:39.414Z,5.50
2019-02-23T20:05:09.502Z,5.40
2019-02-23T20:07:38.081Z,5.30
2019-02-23T20:10:09.860Z,5.20
2019-02-23T20:12:38.519Z,5.20
2019-02-23T20:15:09.332Z,5.20
2019-02-23T20:17:37.764Z,5.30
2019-02-23T20:20:07.354Z,5.30
2019-02-23T20:22:35.929Z,5.10
2019-02-23T20:25:05.919Z,5.10
2019-02-23T20:27:34.364Z,5.10
2019-02-23T20:30:03.157Z,5.10
2019-02-23T20:32:32.346Z,5.00
2019-02-23T20:35:00.868Z,5.00
2019-02-23T20:37:29.304Z,5.00
2019-02-23T20:39:57.830Z,4.60
2019-02-23T20:42:26.345Z,4.90
2019-02-23T20:44:54.864Z,4.90
2019-02-23T20:47:23.299Z,5.00
2019-02-23T20:49:52.255Z,5.00
2019-02-23T20:52:20.699Z,5.00
2019-02-23T20:54:49.315Z,5.00
2019-02-23T20:57:17.776Z,5.10
2019-02-23T20:59:48.045Z,5.10
2019-02-23T21:02:16.683Z,5.00
2019-02-23T21:04:45.120Z,5.10
2019-02-23T21:07:13.612Z,5.00
2019-02-23T21:09:42.238Z,4.90
2019-02-23T21:12:10.688Z,4.90
2019-02-23T21:14:39.129Z,5.00
2019-02-23T21:17:07.591Z,5.00
2019-02-23T21:19:36.031Z,4.90
2019-02-23T21:22:04.565Z,4.90
2019-02-23T21:24:33.026Z,4.80
2019-02-23T21:27:01.482Z,4.70
2019-02-23T21:29:29.928Z,4.80
2019-02-23T21:31:58.388Z,4.80
2019-02-23T21:34:26.833Z,4.90
2019-02-23T21:36:55.290Z,4.80
2019-02-23T21:39:23.727Z,4.70
2019-02-23T21:41:52.183Z,4.70
2019-02-23T21:44:20.642Z,4.60
2019-02-23T21:46:49.105Z,4.50
2019-02-23T21:49:17.621Z,4.40
2019-02-23T21:51:46.083Z,4.20
2019-02-23T21:54:14.516Z,4.30
2019-02-23T21:56:42.984Z,4.10
2019-02-23T21:59:11.508Z,4.00
2019-02-23T22:01:40.292Z,4.10
2019-02-23T22:04:08.796Z,4.10
2019-02-23T22:06:37.274Z,4.00
2019-02-23T22:09:05.956Z,4.00
2019-02-23T22:11:34.510Z,4.00
2019-02-23T22:14:02.993Z,4.00
2019-02-23T22:16:31.506Z,4.00
2019-02-23T22:19:00.014Z,3.90
2019-02-23T22:21:28.451Z,4.00
2019-02-23T22:23:56.926Z,4.00
2019-02-23T22:26:25.436Z,3.90
2019-02-23T22:28:53.929Z,3.80
2019-02-23T22:31:22.471Z,3.60
2019-02-23T22:33:51.009Z,3.50
2019-02-23T22:36:19.456Z,3.60
2019-02-23T22:38:47.998Z,3.60
2019-02-23T22:41:16.501Z,3.60
2019-02-23T22:43:44.956Z,3.60
2019-02-23T22:46:13.395Z,3.70
2019-02-23T22:48:41.858Z,3.60
2019-02-23T22:51:10.295Z,3.50
2019-02-23T22:53:38.764Z,3.60
2019-02-23T22:56:07.212Z,3.60
2019-02-23T22:58:36.045Z,3.50
2019-02-23T23:01:05.758Z,3.60
2019-02-23T23:03:34.220Z,3.60
2019-02-23T23:06:02.745Z,3.60
2019-02-23T23:08:31.274Z,3.60
2019-02-23T23:10:59.711Z,3.40
2019-02-23T23:13:28.201Z,3.30
2019-02-23T23:15:56.757Z,3.20
2019-02-23T23:18:25.206Z,3.00
2019-02-23T23:20:53.792Z,3.00
2019-02-23T23:23:22.228Z,3.00
2019-02-23T23:25:50.694Z,3.00
2019-02-23T23:28:19.135Z,2.80
2019-02-23T23:30:47.600Z,2.80
2019-02-23T23:33:16.040Z,2.80
2019-02-23T23:35:44.567Z,2.70
2019-02-23T23:38:13.004Z,2.80
2019-02-23T23:40:41.541Z,2.80
2019-02-23T23:43:09.980Z,2.70
2019-02-23T23:45:38.459Z,2.70
2019-02-23T23:48:06.970Z,2.70
2019-02-23T23:50:35.464Z,2.60
2019-02-23T23:53:03.922Z,2.50
2019-02-23T23:55:32.385Z,2.40
2019-02-23T23:58:00.825Z,2.40
